Mason City Municipal Airport
KMCW : now visible

Airfield :











YOU CAN JOIN US ON...

 
LOGIN :

Register | Disclaimer

   EN    FR    IT 

 









Legend :    VFR   Marginal VFR   IFR   Intensive IFR   Very Intensive IFR
Visi :
Ceiling :
>= 8 km
>= 3000ft
5 to 8 km
1000 to 3000 ft
1500m to 5 km
500 to 1000 ft
800 to 1500m
200 to 500 ft
< 800m
< 200 ft
Symbols :   Thunderstorms  Fog  Heavy snow  Heavy precipitations  Wind > 20 kt






- Airport Elevation : 1213 ft


KMCW - Mason City Municipal

CURRENT METAR :
  • 060353Z AUTO 00000KT 10SM OVC070 01/M03 A3033 RMK AO2 SLP279 T00061033

EXPIRED METARs :
  • 060253Z AUTO 13004KT 10SM OVC065 01/M03 A3033 RMK AO2 SLP280 T00061033 55000
  • 060153Z AUTO 15005KT 10SM SCT060 BKN090 01/M04 A3033 RMK AO2 SLP280 T00111044

TAF KMCW
Valid from the 06 at 00:00 until the 07 at 00:00 UTC


052321Z 0600/0624 13005KT P6SM BKN100
KZMP FIR / North America



MET'MAP, your aeronautical weather chart ! - Copyright ORBIFLY December 2007 - Disclaimer

ORBIFLY MET'MAP TEAM :

Programming & Development : Alexandra Zaïnal
Concept & original design : Baudouin d'Aumeries
Assistance for programming : Marc-Olivier Méhu
Technical & hardware support : Manuel Goepfert

Contact : metmap@orbifly.com




SOURCES & CREDITS :

   NOAA       Earth
Advisory